Time;durP1;ratioP1;P1;durP2;ratioP2;P2;SDS_P1;SDS_P2;PMS_P1;PMS_P2;Temp;Humidity;BMP_temperature;BMP_pressure;BME280_temperature;BME280_humidity;BME280_pressure;Samples;Min_cycle;Max_cycle;Signal;HPM_P1;HPM_P2
2021/03/06 00:00:11;;;;;;;7.37;6.57;;;-1.40;99.90;;;;;;4854304;29;20286;-61
2021/03/06 00:02:40;;;;;;;10.13;6.47;;;-1.50;99.90;;;;;;4844975;29;20619;-61
2021/03/06 00:05:09;;;;;;;14.00;7.27;;;-1.50;99.90;;;;;;4845140;29;20211;-61
2021/03/06 00:07:37;;;;;;;10.73;6.73;;;-1.50;99.90;;;;;;4847057;29;20294;-61
2021/03/06 00:10:07;;;;;;;14.00;6.30;;;-1.50;99.90;;;;;;4853767;29;20230;-61
2021/03/06 00:12:35;;;;;;;10.40;6.80;;;-1.60;99.90;;;;;;4851185;29;20195;-61
2021/03/06 00:15:03;;;;;;;13.50;6.10;;;-1.60;99.90;;;;;;4841491;29;20272;-61
2021/03/06 00:17:30;;;;;;;9.63;6.70;;;-1.60;99.90;;;;;;4851842;29;20310;-61
2021/03/06 00:19:59;;;;;;;15.33;6.73;;;-1.70;99.90;;;;;;4856864;29;20223;-61
2021/03/06 00:22:27;;;;;;;10.90;6.30;;;-1.70;99.90;;;;;;4841290;29;20560;-61
2021/03/06 00:24:56;;;;;;;12.43;6.80;;;-1.70;99.90;;;;;;4849645;29;20219;-61
2021/03/06 00:27:24;;;;;;;15.20;6.57;;;-1.80;99.90;;;;;;4837688;29;20295;-61
2021/03/06 00:29:51;;;;;;;13.70;6.90;;;-1.80;99.90;;;;;;4850505;29;20299;-61
2021/03/06 00:32:19;;;;;;;13.73;6.87;;;-1.80;99.90;;;;;;4852785;29;20295;-61
2021/03/06 00:34:49;;;;;;;10.47;6.40;;;-1.80;99.90;;;;;;4843093;29;20203;-61
2021/03/06 00:37:20;;;;;;;12.77;6.10;;;-1.80;99.90;;;;;;4849228;29;20203;-61
2021/03/06 00:39:47;;;;;;;11.93;6.07;;;-1.80;99.90;;;;;;4847984;29;20681;-61
2021/03/06 00:42:15;;;;;;;11.17;5.80;;;-1.80;99.90;;;;;;4854417;29;20630;-61
2021/03/06 00:44:42;;;;;;;16.97;6.03;;;-1.90;99.90;;;;;;4851646;29;20231;-61
2021/03/06 00:47:10;;;;;;;8.63;6.23;;;-1.90;99.90;;;;;;4855583;29;20234;-61
2021/03/06 00:49:37;;;;;;;8.73;6.03;;;-2.00;99.90;;;;;;4847793;29;20224;-61
2021/03/06 00:52:05;;;;;;;11.10;6.03;;;-2.00;99.90;;;;;;4850013;29;20258;-61
2021/03/06 00:54:34;;;;;;;13.93;6.27;;;-2.00;99.90;;;;;;4852961;29;20679;-61
2021/03/06 00:57:01;;;;;;;14.20;6.60;;;-2.10;99.90;;;;;;4847974;29;20211;-61
2021/03/06 00:59:29;;;;;;;13.80;6.20;;;-2.10;99.90;;;;;;4847204;29;20260;-61
2021/03/06 01:01:57;;;;;;;15.27;7.40;;;-2.10;99.90;;;;;;4855962;29;20192;-61
2021/03/06 01:04:25;;;;;;;11.77;6.73;;;-2.10;99.90;;;;;;4855018;29;20602;-61
2021/03/06 01:06:52;;;;;;;10.80;6.70;;;-2.10;99.90;;;;;;4858186;29;20191;-61
2021/03/06 01:09:20;;;;;;;11.90;6.40;;;-2.10;99.90;;;;;;4853898;29;20276;-61
2021/03/06 01:11:48;;;;;;;9.63;6.17;;;-2.10;99.90;;;;;;4850729;29;20202;-61
2021/03/06 01:14:17;;;;;;;13.90;6.43;;;-2.10;99.90;;;;;;4856959;29;20203;-61
2021/03/06 01:16:44;;;;;;;11.40;6.37;;;-2.10;99.90;;;;;;4838103;29;20255;-61
2021/03/06 01:19:15;;;;;;;20.17;7.03;;;-2.10;99.90;;;;;;4829602;29;20199;-61
2021/03/06 01:21:42;;;;;;;12.93;6.87;;;-2.20;99.90;;;;;;4833373;29;20208;-61
2021/03/06 01:24:13;;;;;;;12.60;6.60;;;-2.20;99.90;;;;;;4835489;29;20208;-61
2021/03/06 01:26:40;;;;;;;9.60;6.60;;;-2.20;99.90;;;;;;4825713;29;20309;-61
2021/03/06 01:29:08;;;;;;;13.23;6.87;;;-2.20;99.90;;;;;;4833834;29;20298;-61
2021/03/06 01:31:36;;;;;;;14.47;6.67;;;-2.20;99.90;;;;;;4830032;29;20235;-61
2021/03/06 01:34:03;;;;;;;10.87;6.53;;;-2.20;99.90;;;;;;4825116;29;20278;-61
2021/03/06 01:36:31;;;;;;;10.23;7.00;;;-2.30;99.90;;;;;;4827357;29;20299;-61
2021/03/06 01:38:58;;;;;;;15.77;6.83;;;-2.30;99.90;;;;;;4834254;29;20201;-61
2021/03/06 01:41:25;;;;;;;12.07;6.13;;;-2.30;99.90;;;;;;4837458;29;20208;-61
2021/03/06 01:43:53;;;;;;;13.93;6.23;;;-2.30;99.90;;;;;;4840386;29;20210;-61
2021/03/06 01:46:21;;;;;;;8.77;5.87;;;-2.30;99.90;;;;;;4829431;29;20281;-61
2021/03/06 01:48:48;;;;;;;10.50;6.00;;;-2.30;99.90;;;;;;4825529;29;20196;-61
2021/03/06 01:51:16;;;;;;;16.20;6.17;;;-2.30;99.90;;;;;;4831422;29;20244;-61
2021/03/06 01:53:44;;;;;;;12.90;6.40;;;-2.40;99.90;;;;;;4836039;29;20227;-61
2021/03/06 01:56:11;;;;;;;9.77;6.07;;;-2.40;99.90;;;;;;4828325;29;20292;-61
2021/03/06 01:58:41;;;;;;;12.43;6.23;;;-2.40;99.90;;;;;;4825322;29;20289;-61
2021/03/06 02:01:09;;;;;;;9.43;5.70;;;-2.40;99.90;;;;;;4850556;29;20236;-61
2021/03/06 02:03:38;;;;;;;12.60;6.40;;;-2.40;99.90;;;;;;4827089;29;20229;-61
2021/03/06 02:06:05;;;;;;;13.10;6.20;;;-2.40;99.90;;;;;;4826952;29;20235;-61
2021/03/06 02:08:33;;;;;;;11.37;6.03;;;-2.50;99.90;;;;;;4827295;29;20295;-61
2021/03/06 02:11:01;;;;;;;12.20;6.13;;;-2.50;99.90;;;;;;4832490;29;20312;-61
2021/03/06 02:13:44;;;;;;;9.73;5.43;;;-2.60;99.90;;;;;;4826745;29;20596;-61
2021/03/06 02:16:22;;;;;;;15.07;6.90;;;-2.60;99.90;;;;;;4832448;29;20662;-61
2021/03/06 02:18:56;;;;;;;9.33;6.40;;;-2.60;99.90;;;;;;4815873;29;20204;-61
2021/03/06 02:21:35;;;;;;;10.43;6.07;;;-2.60;99.90;;;;;;4831148;29;20798;-61
2021/03/06 02:24:33;;;;;;;16.23;6.20;;;-2.70;99.90;;;;;;4835871;29;20743;-61
2021/03/06 02:27:09;;;;;;;11.07;5.97;;;-2.70;99.90;;;;;;4829193;29;20238;-61
2021/03/06 02:29:39;;;;;;;12.57;6.27;;;-2.70;99.90;;;;;;4833564;29;20239;-61
2021/03/06 02:32:14;;;;;;;12.07;6.03;;;-2.80;99.90;;;;;;4823462;29;20196;-61
2021/03/06 02:34:49;;;;;;;11.80;6.20;;;-2.80;99.90;;;;;;4835700;29;20289;-61
2021/03/06 02:37:22;;;;;;;8.60;6.40;;;-2.80;99.90;;;;;;4826905;29;20244;-61
2021/03/06 02:39:54;;;;;;;11.30;5.93;;;-2.80;99.90;;;;;;4833848;29;20292;-61
2021/03/06 02:42:25;;;;;;;14.80;6.43;;;-2.90;99.90;;;;;;4829449;29;20201;-61
2021/03/06 02:44:58;;;;;;;11.53;5.97;;;-2.90;99.90;;;;;;4832004;29;20310;-61
2021/03/06 02:47:27;;;;;;;14.37;6.37;;;-2.90;99.90;;;;;;4826942;29;20212;-61
2021/03/06 02:49:59;;;;;;;8.70;6.30;;;-2.90;99.90;;;;;;4828373;29;20300;-61
2021/03/06 02:52:27;;;;;;;16.17;6.60;;;-2.90;99.90;;;;;;4823030;29;20333;-61
2021/03/06 02:54:54;;;;;;;10.97;6.67;;;-3.00;99.90;;;;;;4834318;29;20207;-61
2021/03/06 02:57:56;;;;;;;18.43;6.40;;;-3.00;99.90;;;;;;4830541;29;20227;-61
2021/03/06 03:00:34;;;;;;;12.97;6.10;;;-3.10;99.90;;;;;;4806115;29;20215;-61
2021/03/06 03:03:13;;;;;;;9.83;6.83;;;-3.10;99.90;;;;;;4833043;29;20203;-61
2021/03/06 03:05:49;;;;;;;12.87;7.17;;;-3.00;99.90;;;;;;4835381;29;20220;-61
2021/03/06 03:08:23;;;;;;;13.30;7.00;;;-3.00;99.90;;;;;;4829769;29;20303;-61
2021/03/06 03:10:54;;;;;;;8.73;6.83;;;-3.00;99.90;;;;;;4830529;29;20683;-61
2021/03/06 03:13:25;;;;;;;12.83;6.80;;;-3.00;99.90;;;;;;4828302;29;20209;-61
2021/03/06 03:15:58;;;;;;;23.93;7.30;;;-3.10;99.90;;;;;;4830122;29;20252;-61
2021/03/06 03:18:29;;;;;;;15.13;6.77;;;-3.10;99.90;;;;;;4831812;29;20204;-61
2021/03/06 03:21:01;;;;;;;14.13;6.70;;;-3.10;99.90;;;;;;4831335;29;20256;-61
2021/03/06 03:23:34;;;;;;;12.97;7.03;;;-3.10;99.90;;;;;;4838035;29;20204;-61
2021/03/06 03:26:06;;;;;;;14.30;7.20;;;-3.20;99.90;;;;;;4830170;29;20215;-61
2021/03/06 03:28:39;;;;;;;13.07;6.83;;;-3.20;99.90;;;;;;4827218;29;20207;-61
2021/03/06 03:31:09;;;;;;;15.00;7.37;;;-3.20;99.90;;;;;;4829532;29;20201;-61
2021/03/06 03:33:40;;;;;;;13.70;7.50;;;-3.20;99.90;;;;;;4824913;29;20197;-61
2021/03/06 03:36:09;;;;;;;18.80;7.73;;;-3.20;99.90;;;;;;4829573;29;20211;-61
2021/03/06 03:38:39;;;;;;;15.87;7.33;;;-3.20;99.90;;;;;;4829988;29;20196;-61
2021/03/06 03:41:10;;;;;;;16.43;7.83;;;-3.30;99.90;;;;;;4829632;29;20692;-61
2021/03/06 03:43:39;;;;;;;12.97;7.27;;;-3.30;99.90;;;;;;4826669;29;20205;-61
2021/03/06 03:46:08;;;;;;;20.67;7.33;;;-3.30;99.90;;;;;;4827279;29;20228;-61
2021/03/06 03:48:36;;;;;;;16.30;7.33;;;-3.30;99.90;;;;;;4829348;29;20205;-62
2021/03/06 03:51:05;;;;;;;15.23;6.70;;;-3.30;99.90;;;;;;4826874;29;20562;-61
2021/03/06 03:53:32;;;;;;;12.23;7.43;;;-3.30;99.90;;;;;;4837739;29;20211;-62
2021/03/06 03:56:01;;;;;;;11.63;7.37;;;-3.30;99.90;;;;;;4828067;29;20237;-61
2021/03/06 03:58:30;;;;;;;12.83;7.57;;;-3.40;99.90;;;;;;4826291;29;20209;-61
2021/03/06 04:00:58;;;;;;;14.53;7.73;;;-3.40;99.90;;;;;;4830245;29;20208;-61
2021/03/06 04:03:28;;;;;;;14.63;8.13;;;-3.40;99.90;;;;;;4826982;29;20228;-61
2021/03/06 04:05:57;;;;;;;15.17;7.17;;;-3.40;99.90;;;;;;4825631;29;20653;-62
2021/03/06 04:08:25;;;;;;;12.47;7.13;;;-3.50;99.90;;;;;;4829164;29;20240;-62
2021/03/06 04:10:52;;;;;;;17.13;7.33;;;-3.50;99.90;;;;;;4834348;29;20700;-61
2021/03/06 04:13:20;;;;;;;13.13;7.27;;;-3.50;99.90;;;;;;4824244;29;20328;-62
2021/03/06 04:15:47;;;;;;;12.53;7.40;;;-3.60;99.90;;;;;;4833391;29;20200;-61
2021/03/06 04:18:16;;;;;;;17.50;8.23;;;-3.60;99.90;;;;;;4831082;29;20215;-61
2021/03/06 04:20:44;;;;;;;14.33;8.43;;;-3.50;99.90;;;;;;4829076;29;20215;-61
2021/03/06 04:23:11;;;;;;;14.80;7.90;;;-3.50;99.90;;;;;;4822952;29;20289;-62
2021/03/06 04:25:38;;;;;;;18.87;8.60;;;-3.50;99.90;;;;;;4828370;29;20323;-61
2021/03/06 04:28:06;;;;;;;15.83;8.70;;;-3.40;99.90;;;;;;4827224;29;20212;-62
2021/03/06 04:30:35;;;;;;;14.30;8.43;;;-3.40;99.90;;;;;;4829545;29;20196;-62
2021/03/06 04:33:02;;;;;;;14.27;7.83;;;-3.40;99.90;;;;;;4826749;29;20292;-62
2021/03/06 04:35:30;;;;;;;11.60;8.50;;;-3.40;99.90;;;;;;4835914;29;20707;-61
2021/03/06 04:37:59;;;;;;;18.63;9.50;;;-3.50;99.90;;;;;;4829750;29;20204;-61
2021/03/06 04:40:26;;;;;;;16.73;9.10;;;-3.50;99.90;;;;;;4829110;29;20311;-61
2021/03/06 04:42:53;;;;;;;16.47;8.97;;;-3.50;99.90;;;;;;4822230;29;20205;-61
2021/03/06 04:45:21;;;;;;;17.33;8.60;;;-3.50;99.90;;;;;;4834852;29;20204;-62
2021/03/06 04:47:48;;;;;;;18.20;8.80;;;-3.50;99.90;;;;;;4822014;29;20291;-62
2021/03/06 04:50:16;;;;;;;21.93;8.67;;;-3.50;99.90;;;;;;4831111;29;20571;-61
2021/03/06 04:52:43;;;;;;;11.73;8.53;;;-3.50;99.90;;;;;;4832830;29;20588;-61
2021/03/06 04:55:12;;;;;;;18.90;8.80;;;-3.50;99.90;;;;;;4834452;29;20197;-61
2021/03/06 04:57:40;;;;;;;18.73;9.07;;;-3.60;99.90;;;;;;4834533;29;20656;-62
2021/03/06 05:00:09;;;;;;;14.83;8.67;;;-3.60;99.90;;;;;;4827974;29;20644;-62
2021/03/06 05:02:36;;;;;;;15.77;8.50;;;-3.60;99.90;;;;;;4824496;29;20331;-61
2021/03/06 05:05:06;;;;;;;15.70;8.77;;;-3.70;99.90;;;;;;4822639;29;20204;-62
2021/03/06 05:07:33;;;;;;;17.10;8.57;;;-3.70;99.90;;;;;;4832059;29;20381;-61
2021/03/06 05:10:01;;;;;;;15.23;9.23;;;-3.70;99.90;;;;;;4825835;29;20208;-61
2021/03/06 05:12:34;;;;;;;16.20;8.80;;;-3.70;99.90;;;;;;4821984;29;20228;-61
2021/03/06 05:15:01;;;;;;;19.87;8.73;;;-3.70;99.90;;;;;;4825478;29;20200;-62
2021/03/06 05:17:29;;;;;;;24.30;8.93;;;-3.70;99.90;;;;;;4832010;29;20215;-61
2021/03/06 05:19:57;;;;;;;18.23;8.67;;;-3.70;99.90;;;;;;4834046;29;20196;-62
2021/03/06 05:22:24;;;;;;;22.63;9.27;;;-3.70;99.90;;;;;;4828656;29;20268;-62
2021/03/06 05:24:51;;;;;;;16.03;9.10;;;-3.80;99.90;;;;;;4833434;29;20635;-61
2021/03/06 05:27:31;;;;;;;22.87;8.90;;;-3.80;99.90;;;;;;4828160;29;20676;-61
2021/03/06 05:29:59;;;;;;;17.03;8.97;;;-3.80;99.90;;;;;;4832060;29;20240;-62
2021/03/06 05:32:26;;;;;;;24.97;9.43;;;-3.90;99.90;;;;;;4831241;29;20215;-62
2021/03/06 05:34:55;;;;;;;16.30;9.20;;;-3.90;99.90;;;;;;4829856;29;20224;-61
2021/03/06 05:37:22;;;;;;;19.10;9.80;;;-3.80;99.90;;;;;;4830124;29;20224;-62
2021/03/06 05:39:50;;;;;;;27.37;9.87;;;-3.80;99.90;;;;;;4835969;29;20215;-62
2021/03/06 05:42:18;;;;;;;20.23;9.63;;;-3.80;99.90;;;;;;4832069;29;20765;-61
2021/03/06 05:44:45;;;;;;;19.90;9.97;;;-3.90;99.90;;;;;;4833771;29;20292;-62
2021/03/06 05:47:14;;;;;;;25.10;10.60;;;-3.80;99.90;;;;;;4827748;29;20284;-62
2021/03/06 05:49:42;;;;;;;22.00;10.13;;;-3.80;99.90;;;;;;4842258;29;20204;-62
2021/03/06 05:52:16;;;;;;;17.80;10.60;;;-3.80;99.90;;;;;;4834361;29;20275;-61
2021/03/06 05:54:48;;;;;;;20.50;9.77;;;-3.80;99.90;;;;;;4834952;29;20242;-62
2021/03/06 05:57:17;;;;;;;18.87;11.23;;;-3.90;99.90;;;;;;4827979;29;20564;-61
2021/03/06 05:59:45;;;;;;;22.67;11.57;;;-3.90;99.90;;;;;;4835089;29;20204;-61
2021/03/06 06:02:16;;;;;;;24.23;11.10;;;-3.80;99.90;;;;;;4829261;29;20288;-61
2021/03/06 06:04:46;;;;;;;20.63;11.37;;;-3.80;99.90;;;;;;4830751;29;20672;-62
2021/03/06 06:07:16;;;;;;;26.23;10.97;;;-3.90;99.90;;;;;;4843882;29;20319;-61
2021/03/06 06:09:45;;;;;;;23.83;10.50;;;-3.90;99.90;;;;;;4832740;29;20669;-62
2021/03/06 06:12:13;;;;;;;23.97;11.20;;;-3.90;99.90;;;;;;4850293;29;20432;-62
2021/03/06 06:14:41;;;;;;;21.90;11.80;;;-3.90;99.90;;;;;;4825192;29;20265;-61
2021/03/06 06:17:10;;;;;;;24.10;11.80;;;-3.90;99.90;;;;;;4847682;29;20261;-62
2021/03/06 06:19:43;;;;;;;26.23;11.20;;;-3.90;99.90;;;;;;4838495;29;20652;-62
2021/03/06 06:22:18;;;;;;;18.83;11.10;;;-3.90;99.90;;;;;;4826714;29;20291;-61
2021/03/06 06:24:46;;;;;;;25.47;11.77;;;-3.90;99.90;;;;;;4834078;29;20279;-62
2021/03/06 06:27:22;;;;;;;22.43;11.47;;;-3.90;99.90;;;;;;4832692;29;20239;-62
2021/03/06 06:29:51;;;;;;;28.17;12.90;;;-3.90;99.90;;;;;;4829324;29;20723;-61
2021/03/06 06:32:20;;;;;;;19.40;11.40;;;-4.00;99.90;;;;;;4827400;29;20470;-62
2021/03/06 06:35:00;;;;;;;20.17;12.07;;;-4.00;99.90;;;;;;4827507;29;20668;-62
2021/03/06 06:37:29;;;;;;;20.20;12.10;;;-4.00;99.90;;;;;;4827997;29;20295;-62
2021/03/06 06:40:00;;;;;;;24.03;12.03;;;-4.10;99.90;;;;;;4834136;29;20290;-62
2021/03/06 06:42:32;;;;;;;25.40;11.90;;;-4.00;99.90;;;;;;4834868;29;20310;-62
2021/03/06 06:45:02;;;;;;;23.50;12.97;;;-4.00;99.90;;;;;;4835627;29;20706;-61
2021/03/06 06:47:35;;;;;;;23.27;13.10;;;-4.00;99.90;;;;;;4831273;29;20711;-61
2021/03/06 06:50:05;;;;;;;28.53;14.07;;;-3.90;99.90;;;;;;4827356;29;20200;-61
2021/03/06 06:52:36;;;;;;;25.93;14.20;;;-3.80;99.90;;;;;;4830050;29;20722;-61
2021/03/06 06:55:05;;;;;;;26.80;13.83;;;-3.80;99.90;;;;;;4828731;29;20295;-62
2021/03/06 06:57:33;;;;;;;24.20;14.17;;;-3.80;99.90;;;;;;4841813;29;20646;-62
2021/03/06 07:00:03;;;;;;;26.50;13.30;;;-3.70;99.90;;;;;;4827699;29;20287;-62
2021/03/06 07:02:32;;;;;;;27.13;13.30;;;-3.70;99.90;;;;;;4843666;29;20239;-62
2021/03/06 07:05:01;;;;;;;27.33;15.00;;;-3.60;99.90;;;;;;4831053;29;20196;-61
2021/03/06 07:07:38;;;;;;;27.67;15.37;;;-3.50;99.90;;;;;;4829887;29;20731;-61
2021/03/06 07:10:11;;;;;;;31.17;16.33;;;-3.50;99.90;;;;;;4827464;29;20302;-61
2021/03/06 07:12:40;;;;;;;27.87;15.13;;;-3.50;99.90;;;;;;4835437;29;20939;-61
2021/03/06 07:15:18;;;;;;;24.90;14.13;;;-3.40;99.90;;;;;;4835318;29;20657;-62
2021/03/06 07:17:47;;;;;;;32.00;15.27;;;-3.40;99.90;;;;;;4840612;29;20286;-62
2021/03/06 07:20:32;;;;;;;36.37;15.77;;;-3.30;99.90;;;;;;4826678;29;20217;-62
2021/03/06 07:23:17;;;;;;;34.00;15.77;;;-3.30;99.90;;;;;;4829562;29;20354;-62
2021/03/06 07:25:47;;;;;;;28.63;14.30;;;-3.20;99.90;;;;;;4829506;29;20201;-62
2021/03/06 07:28:15;;;;;;;28.87;14.83;;;-3.10;99.90;;;;;;4834425;29;20206;-62
2021/03/06 07:30:43;;;;;;;32.63;15.90;;;-2.90;99.90;;;;;;4836413;29;20208;-62
2021/03/06 07:33:16;;;;;;;32.00;16.63;;;-2.70;99.90;;;;;;4829673;29;20716;-62
2021/03/06 07:35:45;;;;;;;39.10;17.93;;;-2.50;99.90;;;;;;4829077;29;20196;-62
2021/03/06 07:38:16;;;;;;;40.33;19.83;;;-2.00;99.90;;;;;;4829978;29;20243;-61
2021/03/06 07:40:48;;;;;;;39.50;19.60;;;-1.40;99.90;;;;;;4827781;29;20303;-62
2021/03/06 07:43:20;;;;;;;28.43;15.80;;;-0.80;99.90;;;;;;4829492;29;20236;-62
2021/03/06 07:45:50;;;;;;;26.57;13.43;;;-0.30;99.90;;;;;;4825099;29;20232;-61
2021/03/06 07:48:19;;;;;;;23.13;11.60;;;0.20;99.90;;;;;;4822032;29;20209;-61
2021/03/06 07:50:48;;;;;;;18.27;9.73;;;0.50;99.90;;;;;;4831752;29;20244;-61
2021/03/06 07:53:19;;;;;;;19.17;9.97;;;0.80;99.90;;;;;;4830831;29;20656;-61
2021/03/06 07:55:47;;;;;;;18.93;9.13;;;1.10;99.90;;;;;;4827014;29;20242;-62
2021/03/06 07:58:19;;;;;;;17.60;9.00;;;1.50;99.90;;;;;;4827501;29;20212;-62
2021/03/06 08:01:04;;;;;;;17.67;8.40;;;1.90;99.90;;;;;;4828882;29;20212;-61
2021/03/06 08:03:37;;;;;;;23.20;8.80;;;2.30;99.90;;;;;;4827670;29;20211;-61
2021/03/06 08:06:17;;;;;;;20.63;7.90;;;2.60;99.90;;;;;;4830980;29;20219;-61
2021/03/06 08:09:07;;;;;;;11.93;8.50;;;2.90;99.90;;;;;;4839769;29;20299;-62
2021/03/06 08:11:55;;;;;;;16.20;8.47;;;3.30;99.90;;;;;;4836849;29;20242;-61
2021/03/06 08:14:28;;;;;;;18.40;8.90;;;3.60;99.90;;;;;;4830987;29;20213;-61
2021/03/06 08:16:56;;;;;;;12.13;8.10;;;3.70;99.90;;;;;;4828447;29;20287;-61
2021/03/06 08:19:26;;;;;;;15.60;8.67;;;4.20;99.90;;;;;;4822546;29;20200;-62
2021/03/06 08:21:56;;;;;;;14.83;8.20;;;4.60;99.90;;;;;;4830747;29;20232;-61
2021/03/06 08:24:28;;;;;;;12.93;7.93;;;4.70;99.90;;;;;;4830673;29;20209;-61
2021/03/06 08:27:26;;;;;;;11.73;7.80;;;4.90;99.90;;;;;;4827921;29;20212;-61
2021/03/06 08:29:58;;;;;;;15.63;8.60;;;5.00;99.90;;;;;;4774501;29;20199;-61
2021/03/06 08:32:31;;;;;;;13.83;8.33;;;5.40;99.90;;;;;;4815969;29;20668;-61
2021/03/06 08:35:00;;;;;;;11.83;7.97;;;5.70;99.90;;;;;;4823355;29;20230;-61
2021/03/06 08:37:34;;;;;;;13.33;8.33;;;5.80;99.90;;;;;;4828441;29;20228;-61
2021/03/06 08:40:17;;;;;;;14.23;8.20;;;6.00;99.90;;;;;;4842882;29;20330;-61
2021/03/06 08:42:47;;;;;;;13.20;7.87;;;6.20;99.90;;;;;;4824344;29;20211;-61
2021/03/06 08:45:21;;;;;;;13.23;8.10;;;6.40;99.90;;;;;;4831200;29;20200;-61
2021/03/06 08:47:53;;;;;;;13.20;8.10;;;6.20;99.90;;;;;;4837283;29;20220;-61
2021/03/06 08:50:23;;;;;;;15.90;8.57;;;6.10;99.90;;;;;;4822520;29;20222;-61
2021/03/06 08:52:55;;;;;;;10.77;8.23;;;6.10;99.90;;;;;;4830819;29;20375;-61
2021/03/06 08:55:26;;;;;;;11.70;7.83;;;6.00;99.90;;;;;;4833130;29;20233;-62
2021/03/06 08:57:53;;;;;;;10.63;7.90;;;6.10;99.90;;;;;;4823757;29;20202;-61
2021/03/06 09:00:25;;;;;;;13.33;8.73;;;6.40;99.90;;;;;;4826350;29;20247;-61
2021/03/06 09:02:53;;;;;;;14.70;8.93;;;6.80;99.90;;;;;;4823290;29;20223;-61
2021/03/06 09:05:23;;;;;;;15.53;8.40;;;7.10;99.90;;;;;;4821919;29;20205;-62
2021/03/06 09:07:53;;;;;;;13.07;8.23;;;7.20;99.90;;;;;;4821138;29;20365;-61
2021/03/06 09:10:29;;;;;;;10.73;7.87;;;7.30;99.90;;;;;;4816605;29;20296;-62
2021/03/06 09:13:00;;;;;;;14.10;9.17;;;7.60;99.90;;;;;;4822729;29;20303;-62
2021/03/06 09:15:42;;;;;;;13.37;9.43;;;7.50;99.90;;;;;;4818135;29;20304;-62
2021/03/06 09:18:11;;;;;;;17.97;9.60;;;7.60;99.90;;;;;;4822091;29;20200;-61
2021/03/06 09:20:48;;;;;;;13.87;9.00;;;7.80;99.90;;;;;;4833296;29;20327;-61
2021/03/06 09:23:28;;;;;;;17.30;8.73;;;7.60;99.90;;;;;;4837745;29;20208;-62
2021/03/06 09:25:57;;;;;;;15.43;8.73;;;7.70;99.90;;;;;;4828958;29;20308;-61
2021/03/06 09:28:25;;;;;;;13.20;8.70;;;7.50;99.90;;;;;;4833762;29;20287;-62
2021/03/06 09:30:53;;;;;;;15.93;7.93;;;7.60;99.90;;;;;;4832301;29;20231;-61
2021/03/06 09:33:24;;;;;;;12.93;8.70;;;7.90;99.90;;;;;;4825453;29;20196;-61
2021/03/06 09:36:04;;;;;;;10.53;8.63;;;8.00;99.90;;;;;;4832388;29;20204;-61
2021/03/06 09:38:43;;;;;;;17.60;8.27;;;8.20;99.90;;;;;;4826109;29;20200;-61
2021/03/06 09:41:13;;;;;;;10.30;8.53;;;8.30;99.90;;;;;;4830242;29;20238;-62
2021/03/06 09:43:42;;;;;;;12.90;8.50;;;8.50;99.90;;;;;;4823955;29;20200;-61
2021/03/06 09:46:15;;;;;;;13.33;8.90;;;8.50;99.90;;;;;;4829813;29;20265;-62
2021/03/06 09:48:51;;;;;;;18.50;8.47;;;8.60;99.90;;;;;;4834327;29;20349;-61
2021/03/06 09:51:20;;;;;;;8.87;7.97;;;8.60;99.90;;;;;;4850027;29;20239;-61
2021/03/06 09:53:56;;;;;;;14.03;8.90;;;8.90;99.90;;;;;;4835573;29;20199;-61
2021/03/06 09:56:24;;;;;;;12.07;8.97;;;9.20;99.90;;;;;;4827028;29;20268;-61
2021/03/06 09:59:01;;;;;;;8.30;7.50;;;9.40;99.90;;;;;;4825935;29;20743;-61
2021/03/06 10:01:29;;;;;;;11.27;6.83;;;9.40;99.90;;;;;;4829752;29;20215;-61
2021/03/06 10:03:57;;;;;;;8.87;6.90;;;9.40;99.90;;;;;;4830383;29;20206;-61
2021/03/06 10:06:30;;;;;;;10.17;6.23;;;9.20;99.90;;;;;;4827118;29;20252;-61
2021/03/06 10:09:00;;;;;;;9.60;6.50;;;9.40;99.90;;;;;;4819503;29;20228;-61
2021/03/06 10:11:30;;;;;;;9.23;5.93;;;9.70;99.90;;;;;;4831380;29;20211;-62
2021/03/06 10:13:58;;;;;;;8.07;5.50;;;10.10;99.90;;;;;;4826175;29;20207;-61
2021/03/06 10:16:26;;;;;;;6.87;5.10;;;10.70;99.90;;;;;;4839751;29;20208;-61
2021/03/06 10:19:00;;;;;;;6.80;5.10;;;11.10;99.90;;;;;;4831568;29;20200;-61
2021/03/06 10:21:27;;;;;;;6.43;5.47;;;11.00;99.90;;;;;;4839535;29;20624;-61
2021/03/06 10:24:03;;;;;;;6.60;5.83;;;11.00;99.90;;;;;;4830267;29;20307;-62
2021/03/06 10:26:32;;;;;;;6.73;5.30;;;11.40;99.90;;;;;;4820451;29;20285;-62
2021/03/06 10:29:01;;;;;;;8.57;5.50;;;11.70;99.90;;;;;;4823045;29;20286;-61
2021/03/06 10:31:37;;;;;;;13.83;7.23;;;11.60;99.90;;;;;;4827527;29;20696;-61
2021/03/06 10:34:16;;;;;;;9.13;5.43;;;11.60;99.90;;;;;;4826966;29;20291;-62
2021/03/06 10:36:45;;;;;;;11.57;6.73;;;12.00;99.90;;;;;;4817865;29;20216;-62
2021/03/06 10:39:18;;;;;;;5.83;4.20;;;12.20;99.10;;;;;;4831471;29;20297;-62
2021/03/06 10:41:56;;;;;;;4.13;3.73;;;12.50;99.20;;;;;;4822674;29;20200;-62
2021/03/06 10:44:23;;;;;;;8.57;5.00;;;12.50;96.30;;;;;;4831825;29;20229;-62
2021/03/06 10:46:58;;;;;;;6.23;3.90;;;12.70;98.10;;;;;;4822300;29;20216;-61
2021/03/06 10:49:36;;;;;;;7.67;3.90;;;12.10;95.80;;;;;;4807843;29;20206;-62
2021/03/06 10:52:05;;;;;;;4.10;3.80;;;11.60;97.60;;;;;;4824294;29;20326;-62
2021/03/06 10:54:56;;;;;;;4.80;3.70;;;11.60;96.00;;;;;;4838344;29;20616;-61
2021/03/06 10:57:25;;;;;;;4.90;3.57;;;11.50;96.60;;;;;;4830945;29;20196;-61
2021/03/06 10:59:53;;;;;;;4.47;4.00;;;11.30;96.00;;;;;;4830264;29;20300;-61
2021/03/06 11:02:26;;;;;;;4.47;3.80;;;11.80;95.30;;;;;;4831154;29;20208;-62
2021/03/06 11:04:55;;;;;;;3.63;3.37;;;11.90;95.00;;;;;;4829585;29;20319;-62
2021/03/06 11:07:32;;;;;;;5.50;4.13;;;11.70;94.20;;;;;;4821210;29;20320;-61
2021/03/06 11:10:00;;;;;;;9.90;5.23;;;11.90;94.70;;;;;;4823140;29;20203;-61
2021/03/06 11:12:31;;;;;;;6.63;4.20;;;11.70;94.30;;;;;;4819426;29;20342;-61
2021/03/06 11:15:07;;;;;;;5.80;4.00;;;11.80;93.70;;;;;;4819458;29;20205;-61
2021/03/06 11:17:35;;;;;;;4.67;4.27;;;12.00;93.70;;;;;;4818629;29;20250;-62
2021/03/06 11:20:04;;;;;;;6.83;4.00;;;12.30;94.10;;;;;;4821977;29;20205;-61
2021/03/06 11:22:32;;;;;;;4.43;4.03;;;12.20;93.40;;;;;;4819771;29;20266;-61
2021/03/06 11:24:59;;;;;;;5.53;4.20;;;12.10;93.50;;;;;;4819744;29;20197;-61
2021/03/06 11:27:26;;;;;;;4.20;3.90;;;11.90;93.50;;;;;;4822283;29;20716;-61
2021/03/06 11:29:55;;;;;;;4.60;4.00;;;11.90;95.20;;;;;;4822574;29;20296;-61
2021/03/06 11:32:23;;;;;;;3.90;3.50;;;12.20;93.10;;;;;;4846617;29;20204;-61
2021/03/06 11:34:51;;;;;;;4.20;3.23;;;12.10;92.10;;;;;;4829665;29;20232;-61
2021/03/06 11:37:18;;;;;;;4.80;3.47;;;12.00;92.90;;;;;;4834747;29;20204;-61
2021/03/06 11:39:46;;;;;;;4.60;3.50;;;12.00;92.00;;;;;;4830316;29;20208;-61
2021/03/06 11:42:13;;;;;;;4.90;3.60;;;11.80;92.00;;;;;;4827561;29;20253;-62
2021/03/06 11:44:43;;;;;;;4.07;3.60;;;12.10;92.00;;;;;;4832832;29;20656;-61
2021/03/06 11:47:12;;;;;;;5.47;3.80;;;12.20;92.60;;;;;;4834942;29;20226;-61
2021/03/06 11:49:42;;;;;;;4.97;4.03;;;11.70;92.50;;;;;;4818656;29;20240;-61
2021/03/06 11:52:12;;;;;;;7.67;4.03;;;11.60;92.20;;;;;;4825709;29;20795;-61
2021/03/06 11:54:42;;;;;;;4.67;4.27;;;12.00;93.10;;;;;;4824559;29;20200;-61
2021/03/06 11:57:24;;;;;;;6.37;3.77;;;11.80;93.30;;;;;;4836287;29;20210;-62
2021/03/06 11:59:53;;;;;;;5.77;3.87;;;12.00;92.80;;;;;;4823239;29;20208;-61
2021/03/06 12:02:22;;;;;;;4.93;4.37;;;12.40;92.40;;;;;;4832546;29;20649;-61
2021/03/06 12:04:49;;;;;;;7.00;4.53;;;12.40;90.80;;;;;;4820631;29;20296;-61
2021/03/06 12:07:17;;;;;;;4.57;4.07;;;11.90;91.50;;;;;;4828496;29;20224;-61
2021/03/06 12:09:44;;;;;;;3.50;3.30;;;11.90;91.30;;;;;;4825850;29;20553;-60
2021/03/06 12:12:12;;;;;;;4.47;3.90;;;11.40;91.70;;;;;;4832840;29;20208;-61
2021/03/06 12:14:39;;;;;;;5.37;3.90;;;11.20;91.40;;;;;;4828498;29;20578;-61
2021/03/06 12:17:09;;;;;;;3.93;3.70;;;11.40;91.60;;;;;;4834158;29;20228;-61
2021/03/06 12:19:38;;;;;;;5.67;4.20;;;11.60;91.80;;;;;;4827949;29;20199;-61
2021/03/06 12:22:06;;;;;;;7.67;4.73;;;11.80;91.70;;;;;;4841298;29;20334;-61
2021/03/06 12:24:34;;;;;;;6.03;4.40;;;11.70;91.40;;;;;;4851147;29;20542;-60
2021/03/06 12:27:02;;;;;;;10.83;5.93;;;11.70;92.10;;;;;;4828477;29;20702;-61
2021/03/06 12:29:29;;;;;;;4.70;4.33;;;11.70;91.70;;;;;;4832850;29;20300;-61
2021/03/06 12:31:57;;;;;;;5.80;4.37;;;11.60;91.90;;;;;;4828242;29;20197;-61
2021/03/06 12:34:29;;;;;;;4.50;4.10;;;11.60;91.20;;;;;;4827845;29;20200;-61
2021/03/06 12:36:57;;;;;;;4.10;3.70;;;11.60;91.20;;;;;;4829057;29;20235;-60
2021/03/06 12:39:25;;;;;;;4.80;3.90;;;11.40;91.20;;;;;;4836737;29;20290;-61
2021/03/06 12:41:53;;;;;;;6.60;3.90;;;11.30;91.30;;;;;;4833637;29;20324;-61
2021/03/06 12:44:21;;;;;;;4.70;4.30;;;11.10;92.20;;;;;;4827050;29;20298;-60
2021/03/06 12:46:49;;;;;;;7.00;4.40;;;11.00;92.90;;;;;;4829258;29;20454;-61
2021/03/06 12:49:18;;;;;;;4.50;4.10;;;11.20;92.00;;;;;;4828870;29;20715;-61
2021/03/06 12:51:50;;;;;;;3.90;3.67;;;10.90;92.00;;;;;;4831266;29;20247;-60
2021/03/06 12:54:18;;;;;;;4.20;3.90;;;10.70;92.20;;;;;;4829665;29;20654;-61
2021/03/06 12:56:45;;;;;;;4.10;3.80;;;10.30;92.60;;;;;;4830544;29;20303;-61